Startpagina
METAR-TAF:

METAR-TAF

Vliegvelden :

Aéroport Les Eplatures

La Chaux-de-Fonds, Zwitserland

breedte: 47-05-03N, lengte: 006-47-37E, hoogte: 1027 m

Actueel weer

Dit bericht is 27 minuten geleden gemaakt, om 03:50 UTC
Wind 1 kt uit variabele richting
Temperatuur 6°C
Vochtigheid 100%
Druk 1008 hPa
Zicht 10 km of meer
Verspreide wolken op 900 ft
Gebroken wolken op 2500 ft
zware regen

METAR: LSGC 110350Z AUTO VRB01KT 9999 +RA SCT009 BKN025 06/06 Q1008

Tijdstip: 06:17 (04:17 UTC)

Verwachting

Dit bericht is 13 uur en het 52 minuten geleden gemaakt, om 14:25 UTC
Verwachting geldig van 10 om 15 UTC tot 10 om 24 UTC
Wind 2 kt uit variabele richting
Zicht 10 km of meer
Verspreide wolken op 600 ft
Gebroken wolken op 1200 ft
Geheel bewolkt op 3500 ft
lichte regen
Tijdelijke
van 10 om 15 UTC tot 10 om 24 UTC
Gebroken wolken op 900 ft
regen

TAF: LSGC 101425Z 1015/1024 VRB02KT 9999 -RA SCT006 BKN012 OVC035 TEMPO 1015/1024 RA BKN009

Waarnemingen en weersverwachtingen van meer dan 4000 vliegvelden (METAR en TAF).

De beschikbare stations zijn de gele en rode punten op de kaart.

Ga met uw muis naar het station om de naam te zien.

Klik dan om waarnemingen en weersverwachtingen te zien.

kaart wijzigen: klik op de groene knoppen met een zwart kruis om in te zoomen, op de groene knop met een streepje om uit te zoomen of op de groene pijlen voor aangrenzende kaarten.


METAR-TAF: